Time;durP1;ratioP1;P1;durP2;ratioP2;P2;SDS_P1;SDS_P2;PMS_P1;PMS_P2;Temp;Humidity;BMP_temperature;BMP_pressure;BME280_temperature;BME280_humidity;BME280_pressure;Samples;Min_cycle;Max_cycle;Signal;HPM_P1;HPM_P2
2022/12/01 00:00:57;;;;;;;14.70;4.55;;;;;;;;;;4998154;28;20038;-31
2022/12/01 00:03:23;;;;;;;9.20;4.60;;;;;;;;;;4997254;28;20078;-31
2022/12/01 00:06:00;;;;;;;9.88;4.07;;;;;;;;;;4997601;28;20417;-31
2022/12/01 00:08:27;;;;;;;13.45;4.10;;;;;;;;;;4998260;28;20046;-31
2022/12/01 00:10:53;;;;;;;8.27;4.07;;;;;;;;;;4997659;28;20362;-30
2022/12/01 00:13:19;;;;;;;10.10;4.53;;;;;;;;;;4996423;28;20029;-31
2022/12/01 00:15:45;;;;;;;13.98;4.00;;;;;;;;;;4997358;28;20046;-31
2022/12/01 00:18:12;;;;;;;12.60;4.53;;;;;;;;;;4997357;28;20022;-31
2022/12/01 00:20:39;;;;;;;11.50;5.18;;;;;;;;;;4997252;28;20033;-31
2022/12/01 00:23:05;;;;;;;9.68;4.90;;;;;;;;;;4997039;28;20042;-31
2022/12/01 00:25:31;;;;;;;10.32;4.50;;;;;;;;;;4996836;28;20045;-31
2022/12/01 00:27:58;;;;;;;10.98;5.90;;;;;;;;;;4997110;28;20022;-32
2022/12/01 00:30:24;;;;;;;11.23;4.60;;;;;;;;;;4997380;28;20105;-30
2022/12/01 00:32:50;;;;;;;14.35;4.90;;;;;;;;;;4996903;28;20104;-32
2022/12/01 00:35:16;;;;;;;9.30;4.68;;;;;;;;;;4996077;28;20482;-31
2022/12/01 00:37:43;;;;;;;10.93;4.45;;;;;;;;;;4997494;28;20332;-30
2022/12/01 00:40:10;;;;;;;8.85;4.20;;;;;;;;;;4996915;28;20030;-31
2022/12/01 00:42:36;;;;;;;9.00;3.80;;;;;;;;;;4997038;28;20038;-32
2022/12/01 00:45:02;;;;;;;10.05;4.43;;;;;;;;;;4996796;28;20030;-31
2022/12/01 00:47:28;;;;;;;12.60;3.78;;;;;;;;;;4995922;28;20030;-31
2022/12/01 00:49:54;;;;;;;11.30;4.10;;;;;;;;;;4996696;28;20041;-30
2022/12/01 00:52:20;;;;;;;10.10;4.30;;;;;;;;;;4996501;28;20030;-31
2022/12/01 00:54:47;;;;;;;6.57;4.05;;;;;;;;;;4996628;28;20066;-31
2022/12/01 00:57:13;;;;;;;6.20;4.00;;;;;;;;;;4996842;28;20022;-31
2022/12/01 00:59:39;;;;;;;8.30;4.43;;;;;;;;;;4996791;28;20365;-31
2022/12/01 01:02:07;;;;;;;10.07;3.83;;;;;;;;;;4996375;28;20087;-31
2022/12/01 01:04:34;;;;;;;12.48;3.60;;;;;;;;;;4996696;28;20038;-31
2022/12/01 01:07:00;;;;;;;6.93;3.58;;;;;;;;;;4996950;28;20042;-32
2022/12/01 01:09:26;;;;;;;11.32;4.53;;;;;;;;;;4995386;28;20034;-30
2022/12/01 01:11:53;;;;;;;7.90;4.57;;;;;;;;;;4996118;28;20026;-30
2022/12/01 01:14:19;;;;;;;6.63;4.50;;;;;;;;;;4996258;28;20030;-31
2022/12/01 01:16:45;;;;;;;9.95;3.72;;;;;;;;;;4996489;28;20042;-32
2022/12/01 01:19:11;;;;;;;12.05;4.47;;;;;;;;;;4996218;28;20023;-31
2022/12/01 01:21:38;;;;;;;6.95;4.07;;;;;;;;;;4996164;28;20109;-31
2022/12/01 01:24:05;;;;;;;12.80;5.70;;;;;;;;;;4995952;28;20049;-32
2022/12/01 01:26:31;;;;;;;9.38;3.78;;;;;;;;;;4995466;28;20347;-32
2022/12/01 01:29:00;;;;;;;9.30;4.30;;;;;;;;;;4996003;28;20097;-31
2022/12/01 01:31:26;;;;;;;12.00;4.20;;;;;;;;;;4995314;28;20041;-31
2022/12/01 01:33:54;;;;;;;9.60;4.47;;;;;;;;;;4994879;28;20026;-32
2022/12/01 01:36:20;;;;;;;11.73;3.92;;;;;;;;;;4995223;28;20030;-31
2022/12/01 01:38:47;;;;;;;8.40;3.88;;;;;;;;;;4995823;28;20022;-32
2022/12/01 01:41:13;;;;;;;13.90;5.00;;;;;;;;;;4996338;28;20034;-32
2022/12/01 01:43:40;;;;;;;6.38;4.15;;;;;;;;;;4996178;28;20022;-32
2022/12/01 01:46:06;;;;;;;8.32;4.65;;;;;;;;;;4995668;28;20030;-32
2022/12/01 01:48:33;;;;;;;11.25;3.90;;;;;;;;;;4994759;28;20026;-31
2022/12/01 01:51:00;;;;;;;9.48;4.00;;;;;;;;;;4995831;28;20062;-31
2022/12/01 01:53:26;;;;;;;12.40;3.58;;;;;;;;;;4994584;28;20118;-31
2022/12/01 01:55:53;;;;;;;8.13;3.88;;;;;;;;;;4995756;28;20019;-31
2022/12/01 01:58:19;;;;;;;12.15;4.43;;;;;;;;;;4995533;28;20030;-32
2022/12/01 02:00:45;;;;;;;9.57;4.20;;;;;;;;;;4995489;28;20030;-32
2022/12/01 02:03:15;;;;;;;9.23;3.60;;;;;;;;;;4995217;28;20070;-32
2022/12/01 02:05:43;;;;;;;7.03;3.95;;;;;;;;;;4995398;28;20037;-32
2022/12/01 02:08:11;;;;;;;6.50;4.05;;;;;;;;;;4995433;28;20030;-33
2022/12/01 02:10:40;;;;;;;8.93;4.13;;;;;;;;;;4995299;28;20106;-31
2022/12/01 02:13:20;;;;;;;9.85;4.65;;;;;;;;;;4995107;28;20101;-32
2022/12/01 02:15:46;;;;;;;9.90;4.00;;;;;;;;;;4995515;28;20026;-31
2022/12/01 02:18:12;;;;;;;7.65;5.53;;;;;;;;;;4995552;28;20414;-31
2022/12/01 02:20:57;;;;;;;7.95;4.18;;;;;;;;;;4995202;28;20050;-32
2022/12/01 02:23:38;;;;;;;12.18;4.47;;;;;;;;;;4995688;28;20034;-31
2022/12/01 02:26:04;;;;;;;;;;;;;;;;;;4995894;28;20045;-31
2022/12/01 02:28:46;;;;;;;8.95;3.92;;;;;;;;;;4995459;28;19906;-33
2022/12/01 02:31:18;;;;;;;9.93;3.65;;;;;;;;;;4994169;28;20480;-32
2022/12/01 02:33:50;;;;;;;11.82;4.65;;;;;;;;;;4995034;28;20446;-33
2022/12/01 02:36:22;;;;;;;8.88;4.32;;;;;;;;;;4995168;28;20366;-31
2022/12/01 02:38:49;;;;;;;7.50;4.07;;;;;;;;;;4995335;28;20041;-32
2022/12/01 02:41:19;;;;;;;10.88;4.45;;;;;;;;;;4995303;28;20030;-31
2022/12/01 02:43:54;;;;;;;10.97;3.87;;;;;;;;;;4995277;28;20050;-32
2022/12/01 02:46:27;;;;;;;7.50;4.18;;;;;;;;;;4995288;28;20269;-32
2022/12/01 02:48:55;;;;;;;8.98;4.35;;;;;;;;;;4999554;28;20018;-31
2022/12/01 02:51:30;;;;;;;9.60;4.05;;;;;;;;;;4998262;28;20030;-31
2022/12/01 02:53:58;;;;;;;13.38;4.72;;;;;;;;;;4998859;28;20023;-31
2022/12/01 02:56:24;;;;;;;7.00;3.92;;;;;;;;;;4998790;28;20109;-31
2022/12/01 02:58:50;;;;;;;9.27;4.38;;;;;;;;;;4998746;28;20033;-32
2022/12/01 03:01:19;;;;;;;7.93;4.03;;;;;;;;;;4999011;28;20085;-31
2022/12/01 03:04:04;;;;;;;8.30;4.28;;;;;;;;;;4998422;28;20153;-31
2022/12/01 03:06:35;;;;;;;5.57;3.97;;;;;;;;;;4998930;28;20417;-32
2022/12/01 03:09:01;;;;;;;;;;;;;;;;;;4998123;28;20048;-31
2022/12/01 03:11:34;;;;;;;5.68;4.47;;;;;;;;;;4998535;28;20009;-31
2022/12/01 03:14:26;;;;;;;7.53;3.70;;;;;;;;;;4998760;28;20405;-31
2022/12/01 03:16:53;;;;;;;10.38;3.95;;;;;;;;;;4994852;28;20034;-32
2022/12/01 03:19:26;;;;;;;12.57;4.00;;;;;;;;;;4998433;28;20023;-32
2022/12/01 03:22:08;;;;;;;6.50;3.95;;;;;;;;;;4997782;28;20338;-31
2022/12/01 03:24:35;;;;;;;9.75;4.18;;;;;;;;;;4998610;28;20065;-31
2022/12/01 03:27:02;;;;;;;10.63;4.88;;;;;;;;;;4998239;28;20034;-32
2022/12/01 03:29:49;;;;;;;10.70;4.10;;;;;;;;;;4998230;28;20031;-31
2022/12/01 03:32:18;;;;;;;9.40;4.28;;;;;;;;;;4998356;28;20049;-29
2022/12/01 03:34:48;;;;;;;8.73;4.00;;;;;;;;;;4998380;28;20409;-29
2022/12/01 03:37:26;;;;;;;10.03;3.70;;;;;;;;;;4998368;28;20041;-29
2022/12/01 03:39:56;;;;;;;10.43;4.65;;;;;;;;;;4998311;28;20077;-31
2022/12/01 03:42:33;;;;;;;6.85;4.20;;;;;;;;;;4998147;28;20023;-31
2022/12/01 03:45:00;;;;;;;7.30;3.75;;;;;;;;;;4998241;28;20038;-31
2022/12/01 03:47:30;;;;;;;18.80;5.95;;;;;;;;;;4997905;28;20033;-31
2022/12/01 03:49:57;;;;;;;12.85;4.47;;;;;;;;;;4997835;28;20492;-32
2022/12/01 03:52:35;;;;;;;5.88;3.72;;;;;;;;;;4997877;28;20089;-31
2022/12/01 03:55:04;;;;;;;7.28;4.00;;;;;;;;;;4997792;28;20053;-31
2022/12/01 03:57:40;;;;;;;11.02;4.03;;;;;;;;;;4997670;28;20458;-32
2022/12/01 04:00:07;;;;;;;7.28;3.95;;;;;;;;;;4997536;28;20015;-31
2022/12/01 04:02:33;;;;;;;8.85;4.40;;;;;;;;;;4997367;28;20547;-31
2022/12/01 04:04:59;;;;;;;12.90;4.70;;;;;;;;;;4997594;28;20038;-32
2022/12/01 04:07:25;;;;;;;11.40;3.78;;;;;;;;;;4997559;28;20034;-31
2022/12/01 04:09:52;;;;;;;11.70;4.05;;;;;;;;;;4997736;28;20026;-32
2022/12/01 04:12:32;;;;;;;8.20;3.42;;;;;;;;;;4997321;28;20026;-31
2022/12/01 04:15:09;;;;;;;10.23;3.78;;;;;;;;;;4997373;28;20026;-32
2022/12/01 04:17:35;;;;;;;10.45;4.30;;;;;;;;;;4997592;28;20042;-31
2022/12/01 04:20:03;;;;;;;7.57;4.03;;;;;;;;;;4997585;28;20019;-32
2022/12/01 04:22:29;;;;;;;5.88;4.53;;;;;;;;;;4997198;28;20034;-31
2022/12/01 04:24:55;;;;;;;6.95;4.00;;;;;;;;;;4997217;28;20030;-31
2022/12/01 04:27:21;;;;;;;10.23;4.22;;;;;;;;;;4997682;28;20150;-32
2022/12/01 04:29:47;;;;;;;5.13;4.53;;;;;;;;;;4997127;28;20109;-31
2022/12/01 04:32:14;;;;;;;8.07;4.43;;;;;;;;;;4997177;28;20038;-31
2022/12/01 04:34:40;;;;;;;8.68;4.60;;;;;;;;;;4996911;28;20019;-31
2022/12/01 04:37:07;;;;;;;14.35;5.22;;;;;;;;;;4997169;28;20038;-32
2022/12/01 04:39:33;;;;;;;8.63;4.40;;;;;;;;;;4995884;28;20041;-33
2022/12/01 04:42:00;;;;;;;9.23;4.75;;;;;;;;;;4996785;28;20034;-33
2022/12/01 04:44:26;;;;;;;11.02;4.35;;;;;;;;;;4996788;28;20034;-31
2022/12/01 04:46:52;;;;;;;9.30;4.50;;;;;;;;;;4996985;28;20160;-32
2022/12/01 04:49:20;;;;;;;8.38;4.32;;;;;;;;;;4996688;28;20030;-32
2022/12/01 04:51:46;;;;;;;5.97;4.78;;;;;;;;;;4996307;28;20026;-32
2022/12/01 04:54:13;;;;;;;6.97;3.97;;;;;;;;;;4996453;28;20027;-31
2022/12/01 04:56:39;;;;;;;8.63;4.57;;;;;;;;;;4996653;28;20030;-32
2022/12/01 04:59:05;;;;;;;7.68;4.32;;;;;;;;;;4996421;28;20080;-31
2022/12/01 05:01:31;;;;;;;5.57;3.85;;;;;;;;;;4996376;28;20027;-32
2022/12/01 05:03:57;;;;;;;8.30;4.60;;;;;;;;;;4996176;28;20187;-31
2022/12/01 05:06:25;;;;;;;6.28;4.80;;;;;;;;;;4995366;28;20058;-32
2022/12/01 05:08:54;;;;;;;6.82;3.90;;;;;;;;;;4995265;28;20038;-31
2022/12/01 05:11:20;;;;;;;5.38;3.92;;;;;;;;;;4995335;28;20413;-30
2022/12/01 05:13:47;;;;;;;5.53;4.00;;;;;;;;;;4995989;28;20019;-32
2022/12/01 05:16:15;;;;;;;8.00;4.05;;;;;;;;;;4996024;28;20030;-30
2022/12/01 05:18:41;;;;;;;8.38;3.75;;;;;;;;;;4996223;28;20092;-31
2022/12/01 05:21:08;;;;;;;7.47;4.55;;;;;;;;;;4996093;28;20022;-31
2022/12/01 05:23:35;;;;;;;10.95;4.45;;;;;;;;;;4995778;28;20106;-30
2022/12/01 05:26:02;;;;;;;11.10;3.92;;;;;;;;;;4996186;28;20018;-31
2022/12/01 05:28:28;;;;;;;9.15;4.00;;;;;;;;;;4995820;28;20335;-30
2022/12/01 05:30:55;;;;;;;5.75;4.00;;;;;;;;;;4996001;28;20022;-39
2022/12/01 05:33:22;;;;;;;5.88;3.88;;;;;;;;;;4995622;28;20030;-31
2022/12/01 05:35:48;;;;;;;10.15;4.75;;;;;;;;;;4995755;28;20026;-31
2022/12/01 05:38:15;;;;;;;5.38;3.45;;;;;;;;;;4995949;28;20018;-31
2022/12/01 05:40:41;;;;;;;7.95;4.40;;;;;;;;;;4994770;28;20110;-31
2022/12/01 05:43:07;;;;;;;6.13;4.18;;;;;;;;;;4995758;28;20037;-32
2022/12/01 05:45:34;;;;;;;10.85;4.60;;;;;;;;;;4995443;28;20037;-32
2022/12/01 05:48:01;;;;;;;7.82;3.80;;;;;;;;;;4995449;28;20483;-32
2022/12/01 05:50:29;;;;;;;7.82;4.70;;;;;;;;;;4994444;28;20030;-32
2022/12/01 05:52:55;;;;;;;6.18;4.20;;;;;;;;;;4995081;28;20027;-32
2022/12/01 05:55:21;;;;;;;8.75;4.13;;;;;;;;;;4995204;28;20044;-32
2022/12/01 05:57:47;;;;;;;5.35;3.92;;;;;;;;;;4995470;28;20370;-32
2022/12/01 06:03:16;;;;;;;7.95;3.90;;;;;;;;;;5367610;23;20062;-26
2022/12/01 06:05:43;;;;;;;7.05;4.15;;;;;;;;;;4995203;28;20050;-27
2022/12/01 06:08:09;;;;;;;7.60;4.53;;;;;;;;;;4995414;28;20365;-27
2022/12/01 06:10:35;;;;;;;10.48;3.85;;;;;;;;;;4995171;28;20034;-28
2022/12/01 06:13:01;;;;;;;7.68;5.05;;;;;;;;;;4995073;28;20093;-27
2022/12/01 06:15:27;;;;;;;8.68;4.32;;;;;;;;;;4995323;28;20023;-28
2022/12/01 06:17:53;;;;;;;6.88;4.10;;;;;;;;;;4995324;28;20389;-27
2022/12/01 06:20:20;;;;;;;8.63;4.65;;;;;;;;;;4994974;28;20038;-28
2022/12/01 06:22:46;;;;;;;7.72;4.60;;;;;;;;;;4994532;28;20034;-27
2022/12/01 06:25:12;;;;;;;14.00;5.13;;;;;;;;;;4994773;28;20065;-27
2022/12/01 06:27:38;;;;;;;8.85;5.35;;;;;;;;;;4995164;28;20105;-27
2022/12/01 06:30:04;;;;;;;9.18;4.20;;;;;;;;;;4994975;28;20022;-27
2022/12/01 06:32:30;;;;;;;9.48;4.15;;;;;;;;;;4994860;28;20034;-27
2022/12/01 06:34:57;;;;;;;15.30;5.15;;;;;;;;;;4995080;28;20081;-27
2022/12/01 06:37:23;;;;;;;8.68;4.30;;;;;;;;;;4994843;28;20357;-27
2022/12/01 06:39:49;;;;;;;7.10;4.97;;;;;;;;;;4995773;28;20018;-27
2022/12/01 06:42:15;;;;;;;11.27;4.38;;;;;;;;;;4994817;28;20401;-27
2022/12/01 06:44:41;;;;;;;13.27;4.47;;;;;;;;;;4994752;28;20121;-27
2022/12/01 06:47:07;;;;;;;8.75;4.00;;;;;;;;;;4994701;28;20034;-27
2022/12/01 06:49:34;;;;;;;12.02;4.88;;;;;;;;;;4994978;28;20026;-27
2022/12/01 06:52:00;;;;;;;10.13;4.30;;;;;;;;;;4994802;28;20039;-28
2022/12/01 06:54:26;;;;;;;10.63;4.47;;;;;;;;;;4995157;28;20097;-27
2022/12/01 06:56:53;;;;;;;7.97;5.20;;;;;;;;;;4995337;28;20100;-27
2022/12/01 06:59:19;;;;;;;11.73;4.85;;;;;;;;;;4994645;28;20034;-27
2022/12/01 07:01:45;;;;;;;9.55;4.72;;;;;;;;;;4993559;28;20046;-27
2022/12/01 07:04:11;;;;;;;10.98;4.40;;;;;;;;;;4994404;28;20053;-27
2022/12/01 07:06:37;;;;;;;9.65;6.05;;;;;;;;;;4994509;28;20045;-28
2022/12/01 07:09:03;;;;;;;7.28;4.75;;;;;;;;;;4993953;28;20045;-27
2022/12/01 07:11:31;;;;;;;11.30;4.88;;;;;;;;;;4993523;28;20040;-27
2022/12/01 07:13:57;;;;;;;14.32;4.47;;;;;;;;;;4994485;28;20030;-27
2022/12/01 07:16:24;;;;;;;10.50;4.20;;;;;;;;;;4994554;28;20113;-27
2022/12/01 07:18:51;;;;;;;8.50;4.15;;;;;;;;;;4994571;28;20104;-27
2022/12/01 07:21:17;;;;;;;6.70;4.05;;;;;;;;;;4994408;28;20034;-27
2022/12/01 07:23:43;;;;;;;5.22;3.95;;;;;;;;;;4994497;28;20396;-27
2022/12/01 07:26:14;;;;;;;11.75;4.70;;;;;;;;;;4994611;28;20019;-28
2022/12/01 07:28:40;;;;;;;;;;;;;;;;;;4995303;28;20089;-27
2022/12/01 07:31:08;;;;;;;8.10;4.43;;;;;;;;;;4994355;28;19918;-27
2022/12/01 07:33:34;;;;;;;7.03;3.83;;;;;;;;;;4994747;28;20023;-28
2022/12/01 07:36:01;;;;;;;14.52;4.18;;;;;;;;;;4998088;28;20034;-27
2022/12/01 07:38:28;;;;;;;9.20;4.25;;;;;;;;;;4998447;28;20046;-28
2022/12/01 07:40:54;;;;;;;7.50;4.57;;;;;;;;;;4997679;28;20030;-28
2022/12/01 07:43:20;;;;;;;10.93;4.30;;;;;;;;;;4997428;28;20030;-27
2022/12/01 07:45:47;;;;;;;7.55;4.68;;;;;;;;;;4997707;28;20041;-28
2022/12/01 07:48:13;;;;;;;15.05;5.45;;;;;;;;;;4997728;28;20030;-28
2022/12/01 07:50:39;;;;;;;17.60;4.38;;;;;;;;;;4997549;28;20034;-28
2022/12/01 07:53:05;;;;;;;6.32;4.65;;;;;;;;;;4997636;28;20440;-27
2022/12/01 07:55:31;;;;;;;16.23;4.40;;;;;;;;;;4997450;28;20329;-27
2022/12/01 07:58:01;;;;;;;9.00;4.32;;;;;;;;;;4997734;28;20054;-27
2022/12/01 08:00:27;;;;;;;9.25;5.38;;;;;;;;;;4997696;28;20030;-27
2022/12/01 08:02:53;;;;;;;7.10;4.15;;;;;;;;;;4997268;28;20057;-27
2022/12/01 08:05:19;;;;;;;12.88;5.43;;;;;;;;;;4997389;28;20440;-28
2022/12/01 08:07:45;;;;;;;7.55;4.43;;;;;;;;;;4997386;28;20112;-27
2022/12/01 08:10:12;;;;;;;10.60;4.53;;;;;;;;;;4997541;28;20395;-27
2022/12/01 08:12:38;;;;;;;14.60;4.45;;;;;;;;;;4997384;28;20373;-27
2022/12/01 08:15:04;;;;;;;8.85;4.40;;;;;;;;;;4997670;28;20030;-27
2022/12/01 08:17:30;;;;;;;12.80;5.05;;;;;;;;;;4997688;28;20026;-26
2022/12/01 08:19:56;;;;;;;10.05;4.10;;;;;;;;;;4997400;28;20022;-27
2022/12/01 08:22:23;;;;;;;13.95;4.70;;;;;;;;;;4997487;28;20062;-27
2022/12/01 08:24:49;;;;;;;9.93;4.35;;;;;;;;;;4996352;28;20030;-27
2022/12/01 08:27:15;;;;;;;13.45;5.15;;;;;;;;;;4997173;28;20406;-27
2022/12/01 08:29:41;;;;;;;9.57;4.55;;;;;;;;;;4996742;28;20085;-28
2022/12/01 08:32:07;;;;;;;20.90;5.28;;;;;;;;;;4996882;28;20061;-28
2022/12/01 08:34:37;;;;;;;7.40;6.20;;;;;;;;;;4996617;28;20034;-28
2022/12/01 08:37:03;;;;;;;10.15;3.88;;;;;;;;;;4996650;28;20041;-28
2022/12/01 08:39:30;;;;;;;14.43;5.18;;;;;;;;;;4996922;28;20369;-28
2022/12/01 08:41:56;;;;;;;17.92;4.60;;;;;;;;;;4995463;28;20410;-27
2022/12/01 08:44:22;;;;;;;7.97;5.03;;;;;;;;;;4996584;28;20034;-27
2022/12/01 08:46:48;;;;;;;11.15;4.53;;;;;;;;;;4996717;28;20023;-26
2022/12/01 08:49:14;;;;;;;6.22;4.43;;;;;;;;;;4996452;28;20114;-27
2022/12/01 08:51:40;;;;;;;10.75;4.30;;;;;;;;;;4996610;28;20176;-27
2022/12/01 08:54:07;;;;;;;13.48;5.57;;;;;;;;;;4996403;28;20027;-27
2022/12/01 08:56:34;;;;;;;18.15;4.70;;;;;;;;;;4996298;28;20022;-27
2022/12/01 08:59:01;;;;;;;16.15;5.78;;;;;;;;;;4996157;28;20029;-27
2022/12/01 09:01:27;;;;;;;12.55;4.78;;;;;;;;;;4996144;28;20029;-27
2022/12/01 09:04:04;;;;;;;10.27;4.43;;;;;;;;;;4995856;28;20128;-27
2022/12/01 09:06:31;;;;;;;6.45;5.10;;;;;;;;;;4996371;28;20412;-26
2022/12/01 09:09:00;;;;;;;17.45;4.60;;;;;;;;;;4995984;28;20062;-27
2022/12/01 09:11:26;;;;;;;14.55;5.20;;;;;;;;;;4995964;28;20149;-27
2022/12/01 09:13:52;;;;;;;16.80;5.03;;;;;;;;;;4995874;28;20034;-27
2022/12/01 09:16:19;;;;;;;12.82;5.05;;;;;;;;;;4995934;28;20026;-27
2022/12/01 09:18:46;;;;;;;13.82;4.82;;;;;;;;;;4996161;28;20110;-27
2022/12/01 09:21:13;;;;;;;11.43;5.03;;;;;;;;;;4995758;28;20117;-27
2022/12/01 09:23:39;;;;;;;14.63;4.95;;;;;;;;;;4996020;28;20342;-27
2022/12/01 09:26:06;;;;;;;13.88;5.07;;;;;;;;;;4995985;28;20026;-27
2022/12/01 09:28:32;;;;;;;6.78;4.60;;;;;;;;;;4995689;28;20351;-27
2022/12/01 09:31:08;;;;;;;14.88;5.28;;;;;;;;;;4995659;28;20354;-27
2022/12/01 09:33:35;;;;;;;11.68;4.53;;;;;;;;;;4995335;28;20026;-27
2022/12/01 09:36:02;;;;;;;11.70;5.03;;;;;;;;;;4995595;28;20027;-27
2022/12/01 09:38:28;;;;;;;6.30;4.32;;;;;;;;;;4995810;28;20126;-26
2022/12/01 09:40:55;;;;;;;9.55;5.35;;;;;;;;;;4995511;28;20449;-27
2022/12/01 09:43:26;;;;;;;17.17;5.68;;;;;;;;;;4995290;28;20030;-28
2022/12/01 09:46:01;;;;;;;13.95;4.38;;;;;;;;;;4996149;28;20053;-27
2022/12/01 09:48:33;;;;;;;16.63;5.70;;;;;;;;;;4995692;28;20034;-27
2022/12/01 09:50:59;;;;;;;10.65;4.55;;;;;;;;;;4995885;28;20365;-26
2022/12/01 09:53:27;;;;;;;11.55;4.82;;;;;;;;;;4995411;28;20030;-28
2022/12/01 09:55:54;;;;;;;14.07;5.07;;;;;;;;;;4995421;28;20345;-27
2022/12/01 09:58:24;;;;;;;11.20;5.03;;;;;;;;;;4994787;28;20034;-27
2022/12/01 10:00:51;;;;;;;14.40;4.65;;;;;;;;;;4995425;28;20369;-27
2022/12/01 10:03:27;;;;;;;9.73;4.38;;;;;;;;;;4994992;28;20058;-27
2022/12/01 10:05:59;;;;;;;10.25;4.43;;;;;;;;;;4995360;28;20038;-27
2022/12/01 10:08:26;;;;;;;15.02;5.72;;;;;;;;;;4995087;28;20476;-28
2022/12/01 10:10:56;;;;;;;14.65;4.45;;;;;;;;;;4994964;28;20070;-27
2022/12/01 10:13:23;;;;;;;10.70;4.25;;;;;;;;;;4994859;28;20041;-27
2022/12/01 10:16:08;;;;;;;12.48;4.47;;;;;;;;;;4994988;28;20027;-27
2022/12/01 10:18:59;;;;;;;10.48;4.95;;;;;;;;;;4995279;28;20053;-27
2022/12/01 10:21:29;;;;;;;6.97;4.43;;;;;;;;;;4994950;28;20031;-27
2022/12/01 10:23:58;;;;;;;9.90;4.78;;;;;;;;;;4994733;28;20045;-26
2022/12/01 10:26:43;;;;;;;10.18;4.97;;;;;;;;;;4995363;28;20046;-28
2022/12/01 10:29:11;;;;;;;12.23;4.65;;;;;;;;;;4995074;28;20437;-27
2022/12/01 10:31:49;;;;;;;10.15;5.50;;;;;;;;;;4994704;28;20081;-27
2022/12/01 10:34:17;;;;;;;12.73;4.90;;;;;;;;;;4995136;28;20041;-27
2022/12/01 10:36:43;;;;;;;6.68;5.28;;;;;;;;;;4994853;28;20401;-28
2022/12/01 10:39:15;;;;;;;12.77;4.78;;;;;;;;;;4994795;28;20349;-28
2022/12/01 10:41:41;;;;;;;9.65;5.03;;;;;;;;;;4994996;28;20040;-28
2022/12/01 10:44:08;;;;;;;12.00;4.95;;;;;;;;;;4995014;28;20026;-27
2022/12/01 10:46:37;;;;;;;16.90;6.22;;;;;;;;;;4994706;28;20357;-28
2022/12/01 10:49:13;;;;;;;14.13;5.25;;;;;;;;;;4994448;28;20177;-26
2022/12/01 10:51:56;;;;;;;24.27;5.75;;;;;;;;;;4994844;28;20042;-27
2022/12/01 10:54:24;;;;;;;14.43;5.60;;;;;;;;;;4994673;28;20050;-27
2022/12/01 10:56:54;;;;;;;23.45;6.88;;;;;;;;;;4994601;28;20093;-27
2022/12/01 10:59:25;;;;;;;31.65;6.28;;;;;;;;;;4994877;28;20030;-27
2022/12/01 11:01:51;;;;;;;;;;;;;;;;;;4994910;28;20037;-27
2022/12/01 11:04:24;;;;;;;21.10;5.72;;;;;;;;;;4994401;28;20345;-27
2022/12/01 11:06:51;;;;;;;17.90;5.13;;;;;;;;;;4994533;28;20041;-27
2022/12/01 11:09:23;;;;;;;19.88;5.55;;;;;;;;;;4997479;28;20030;-27
2022/12/01 11:12:15;;;;;;;10.38;5.13;;;;;;;;;;4998392;28;20105;-27
2022/12/01 11:14:41;;;;;;;17.27;4.63;;;;;;;;;;4994891;28;20038;-27
2022/12/01 11:17:25;;;;;;;16.45;6.70;;;;;;;;;;4998184;28;20030;-28
2022/12/01 11:19:51;;;;;;;10.43;4.65;;;;;;;;;;4998566;28;20026;-27
2022/12/01 11:22:22;;;;;;;11.13;4.70;;;;;;;;;;4998288;28;20042;-27
2022/12/01 11:24:54;;;;;;;13.38;5.75;;;;;;;;;;4998323;28;20109;-27
2022/12/01 11:27:20;;;;;;;12.18;5.53;;;;;;;;;;4997939;28;20034;-28
2022/12/01 11:29:49;;;;;;;13.85;5.38;;;;;;;;;;4997917;28;20037;-27
2022/12/01 11:32:41;;;;;;;13.80;5.47;;;;;;;;;;4997774;28;20038;-27
2022/12/01 11:35:18;;;;;;;9.10;5.05;;;;;;;;;;4994491;28;20477;-27
2022/12/01 11:37:47;;;;;;;10.82;5.82;;;;;;;;;;4997834;28;20034;-27
2022/12/01 11:40:13;;;;;;;11.32;5.00;;;;;;;;;;4996736;28;20486;-27
2022/12/01 11:42:40;;;;;;;20.80;5.50;;;;;;;;;;4997886;28;20034;-27
2022/12/01 11:45:35;;;;;;;19.33;5.25;;;;;;;;;;4997651;28;20459;-27
2022/12/01 11:48:02;;;;;;;19.60;6.38;;;;;;;;;;4981410;28;20425;-27
2022/12/01 11:50:29;;;;;;;16.35;4.75;;;;;;;;;;4997566;28;20073;-28
2022/12/01 11:52:56;;;;;;;13.70;5.97;;;;;;;;;;4997532;28;20034;-28
2022/12/01 11:55:26;;;;;;;8.73;5.32;;;;;;;;;;4997537;28;20440;-28
2022/12/01 11:57:54;;;;;;;23.30;6.60;;;;;;;;;;4996573;28;20065;-28
2022/12/01 12:00:21;;;;;;;9.27;4.65;;;;;;;;;;4997672;28;20101;-28
2022/12/01 12:03:06;;;;;;;11.07;5.57;;;;;;;;;;4997378;28;20382;-28
2022/12/01 12:05:38;;;;;;;11.27;5.18;;;;;;;;;;4997841;28;20129;-27
2022/12/01 12:08:13;;;;;;;13.88;5.38;;;;;;;;;;4997262;28;20106;-28
2022/12/01 12:10:54;;;;;;;9.40;5.28;;;;;;;;;;4997694;28;20484;-27
2022/12/01 12:13:43;;;;;;;12.18;6.18;;;;;;;;;;4997078;28;20081;-26
2022/12/01 12:16:21;;;;;;;10.40;4.82;;;;;;;;;;4997390;28;20033;-26
2022/12/01 12:18:53;;;;;;;9.65;4.80;;;;;;;;;;4997295;28;20034;-27
2022/12/01 12:21:32;;;;;;;13.90;5.50;;;;;;;;;;4997013;28;20031;-26
2022/12/01 12:23:58;;;;;;;10.98;4.95;;;;;;;;;;4996856;28;20037;-27
2022/12/01 12:26:33;;;;;;;12.57;5.20;;;;;;;;;;4997194;28;20041;-27
2022/12/01 12:29:19;;;;;;;11.65;5.38;;;;;;;;;;4995798;28;20449;-27
2022/12/01 12:32:03;;;;;;;13.38;4.75;;;;;;;;;;4996660;28;20026;-27
2022/12/01 12:35:02;;;;;;;12.45;4.90;;;;;;;;;;4996547;28;20338;-27
2022/12/01 12:37:34;;;;;;;12.93;4.57;;;;;;;;;;4954007;28;20065;-27
2022/12/01 12:40:00;;;;;;;11.00;4.93;;;;;;;;;;4996530;28;20038;-27
2022/12/01 12:42:35;;;;;;;11.20;5.45;;;;;;;;;;4996638;28;20031;-27
2022/12/01 12:45:01;;;;;;;10.48;5.32;;;;;;;;;;4997132;28;20101;-27
2022/12/01 12:47:37;;;;;;;11.30;5.07;;;;;;;;;;4996786;28;20403;-28
2022/12/01 12:50:06;;;;;;;13.77;4.95;;;;;;;;;;4996335;28;20033;-27
2022/12/01 12:52:39;;;;;;;10.30;4.68;;;;;;;;;;4996067;28;20042;-27
2022/12/01 12:55:24;;;;;;;13.73;5.13;;;;;;;;;;4995280;28;20023;-27
2022/12/01 12:57:56;;;;;;;22.30;5.93;;;;;;;;;;4996752;28;20018;-31
2022/12/01 13:00:25;;;;;;;15.20;5.15;;;;;;;;;;4996382;28;20022;-27
2022/12/01 13:02:53;;;;;;;13.07;4.82;;;;;;;;;;4995390;28;20458;-27
2022/12/01 13:05:23;;;;;;;10.88;4.75;;;;;;;;;;4996084;28;20045;-27
2022/12/01 13:08:07;;;;;;;12.60;4.65;;;;;;;;;;4996293;28;20037;-27
2022/12/01 13:10:40;;;;;;;12.90;5.88;;;;;;;;;;4996016;28;20457;-26
2022/12/01 13:13:13;;;;;;;10.57;5.78;;;;;;;;;;4995824;28;20164;-27
2022/12/01 13:15:40;;;;;;;11.65;5.15;;;;;;;;;;4996382;28;20057;-28
2022/12/01 13:18:14;;;;;;;17.75;5.20;;;;;;;;;;4995853;28;20030;-27
2022/12/01 13:20:41;;;;;;;11.70;5.72;;;;;;;;;;4996139;28;20030;-27
2022/12/01 13:23:12;;;;;;;13.50;5.82;;;;;;;;;;4995641;28;20142;-27
2022/12/01 13:25:39;;;;;;;23.52;6.07;;;;;;;;;;4995697;28;20519;-27
2022/12/01 13:28:18;;;;;;;10.20;5.97;;;;;;;;;;4995929;28;20050;-27
2022/12/01 13:31:03;;;;;;;13.90;6.03;;;;;;;;;;4995662;28;20046;-27
2022/12/01 13:33:30;;;;;;;11.32;5.40;;;;;;;;;;4995544;28;20057;-27
2022/12/01 13:35:57;;;;;;;10.48;5.30;;;;;;;;;;4995779;28;20030;-27
2022/12/01 13:38:29;;;;;;;15.18;4.85;;;;;;;;;;4995624;28;20026;-27
2022/12/01 13:41:14;;;;;;;16.52;6.10;;;;;;;;;;4995577;28;20026;-27
2022/12/01 13:43:52;;;;;;;12.18;5.45;;;;;;;;;;4995231;28;20461;-28
2022/12/01 13:46:21;;;;;;;9.55;5.30;;;;;;;;;;4995925;28;20026;-28
2022/12/01 13:48:47;;;;;;;17.33;5.38;;;;;;;;;;4995277;28;20036;-28
2022/12/01 13:51:13;;;;;;;15.13;5.72;;;;;;;;;;4995771;28;20041;-27
2022/12/01 13:53:52;;;;;;;17.80;5.30;;;;;;;;;;4995101;28;20026;-27
2022/12/01 13:56:57;;;;;;;15.63;5.45;;;;;;;;;;4995734;28;20460;-26
2022/12/01 13:59:40;;;;;;;16.30;6.97;;;;;;;;;;4916819;29;20040;-27
2022/12/01 14:02:16;;;;;;;11.23;4.75;;;;;;;;;;4916655;29;20387;-27
2022/12/01 14:04:43;;;;;;;12.70;5.57;;;;;;;;;;4968798;28;20042;-27
2022/12/01 14:07:21;;;;;;;10.95;5.28;;;;;;;;;;4995308;28;20039;-27
2022/12/01 14:09:48;;;;;;;13.70;5.75;;;;;;;;;;4995737;28;20088;-27
2022/12/01 14:12:19;;;;;;;15.73;5.45;;;;;;;;;;4995092;28;20121;-27
2022/12/01 14:14:53;;;;;;;10.80;5.55;;;;;;;;;;4995184;28;20457;-27
2022/12/01 14:17:28;;;;;;;8.13;5.32;;;;;;;;;;4995720;28;20104;-27
2022/12/01 14:19:55;;;;;;;13.20;4.70;;;;;;;;;;4995445;28;20023;-27
2022/12/01 14:22:33;;;;;;;20.73;6.90;;;;;;;;;;4994468;28;20397;-27
2022/12/01 14:25:00;;;;;;;17.05;5.38;;;;;;;;;;4995119;28;20027;-27
2022/12/01 14:27:40;;;;;;;9.00;4.70;;;;;;;;;;4994973;28;20026;-26
2022/12/01 14:30:36;;;;;;;17.77;5.95;;;;;;;;;;4995536;28;20338;-26
2022/12/01 14:33:20;;;;;;;15.20;5.85;;;;;;;;;;4978803;28;20050;-26
2022/12/01 14:35:46;;;;;;;17.13;5.72;;;;;;;;;;4995209;28;20361;-26
2022/12/01 14:38:13;;;;;;;10.05;4.60;;;;;;;;;;4995209;28;20037;-27
2022/12/01 14:40:39;;;;;;;10.88;5.20;;;;;;;;;;4994919;28;20026;-27
2022/12/01 14:46:01;;;;;;;8.13;4.18;;;;;;;;;;4971204;28;20129;-27
2022/12/01 14:48:47;;;;;;;11.23;5.10;;;;;;;;;;4999141;28;20104;-27
2022/12/01 14:51:18;;;;;;;12.95;5.85;;;;;;;;;;4998825;28;20053;-27
2022/12/01 14:53:46;;;;;;;13.65;5.28;;;;;;;;;;4998665;28;20034;-27
2022/12/01 14:56:14;;;;;;;14.90;5.38;;;;;;;;;;4998683;28;20034;-27